createdAt,value
2023-02-02T00:01:48.611Z,14.00
2023-02-02T00:04:21.895Z,14.00
2023-02-02T00:06:50.460Z,14.00
2023-02-02T00:09:20.170Z,14.00
2023-02-02T00:11:51.226Z,14.00
2023-02-02T00:14:20.134Z,14.00
2023-02-02T00:16:49.702Z,14.00
2023-02-02T00:19:20.082Z,14.00
2023-02-02T00:21:48.940Z,13.90
2023-02-02T00:24:19.205Z,14.00
2023-02-02T00:26:50.637Z,14.00
2023-02-02T00:29:21.039Z,14.00
2023-02-02T00:31:49.859Z,13.90
2023-02-02T00:34:18.700Z,13.90
2023-02-02T00:36:47.517Z,13.90
2023-02-02T00:39:20.060Z,13.90
2023-02-02T00:41:49.998Z,13.90
2023-02-02T00:44:35.947Z,13.90
2023-02-02T00:47:04.894Z,13.90
2023-02-02T00:49:33.369Z,13.80
2023-02-02T00:52:01.846Z,13.80
2023-02-02T00:54:30.590Z,13.80
2023-02-02T00:57:00.317Z,13.80
2023-02-02T00:59:28.783Z,13.80
2023-02-02T01:01:57.151Z,13.80
2023-02-02T01:04:26.056Z,13.80
2023-02-02T01:06:54.650Z,13.80
2023-02-02T01:09:23.161Z,13.80
2023-02-02T01:11:51.497Z,13.80
2023-02-02T01:14:22.606Z,13.80
2023-02-02T01:16:50.991Z,13.70
2023-02-02T01:19:19.451Z,13.70
2023-02-02T01:21:51.193Z,13.70
2023-02-02T01:24:19.531Z,13.80
2023-02-02T01:26:50.174Z,13.70
2023-02-02T01:29:18.608Z,13.70
2023-02-02T01:31:48.802Z,13.80
2023-02-02T01:34:17.244Z,13.80
2023-02-02T01:36:45.603Z,13.70
2023-02-02T01:39:13.959Z,13.70
2023-02-02T01:41:43.323Z,13.70
2023-02-02T01:44:48.722Z,13.70
2023-02-02T01:47:19.574Z,13.60
2023-02-02T01:49:48.428Z,13.60
2023-02-02T01:52:19.035Z,13.60
2023-02-02T01:54:50.439Z,13.60
2023-02-02T01:57:26.035Z,13.50
2023-02-02T01:59:56.120Z,13.50
2023-02-02T02:02:27.006Z,13.50
2023-02-02T02:04:56.309Z,13.40
2023-02-02T02:07:25.034Z,13.40
2023-02-02T02:09:53.340Z,13.40
2023-02-02T02:12:21.737Z,13.40
2023-02-02T02:15:09.401Z,13.40
2023-02-02T02:17:50.961Z,13.40
2023-02-02T02:21:05.964Z,13.40
2023-02-02T02:24:23.195Z,13.40
2023-02-02T02:27:19.974Z,13.30
2023-02-02T02:30:15.266Z,13.30
2023-02-02T02:32:48.029Z,13.30
2023-02-02T02:35:29.836Z,13.30
2023-02-02T02:38:06.166Z,13.30
2023-02-02T02:40:39.229Z,13.30
2023-02-02T02:43:12.249Z,13.20
2023-02-02T02:45:42.087Z,13.20
2023-02-02T02:48:12.188Z,13.20
2023-02-02T02:50:40.817Z,13.20
2023-02-02T02:53:16.316Z,13.20
2023-02-02T02:55:50.327Z,13.10
2023-02-02T02:58:22.850Z,13.10
2023-02-02T03:01:01.333Z,13.10
2023-02-02T03:03:55.158Z,13.10
2023-02-02T03:06:29.114Z,13.10
2023-02-02T03:09:01.766Z,13.10
2023-02-02T03:11:30.497Z,13.10
2023-02-02T03:13:59.212Z,13.10
2023-02-02T03:16:27.604Z,13.10
2023-02-02T03:18:58.217Z,13.00
2023-02-02T03:21:26.723Z,13.00
2023-02-02T03:23:55.146Z,13.10
2023-02-02T03:26:23.646Z,13.00
2023-02-02T03:28:53.501Z,13.00
2023-02-02T03:31:22.065Z,13.00
2023-02-02T03:33:50.429Z,12.90
2023-02-02T03:36:20.178Z,13.00
2023-02-02T03:38:48.564Z,12.90
2023-02-02T03:41:17.123Z,12.90
2023-02-02T03:43:46.087Z,12.90
2023-02-02T03:46:14.820Z,12.90
2023-02-02T03:48:43.592Z,12.90
2023-02-02T03:51:14.440Z,12.90
2023-02-02T03:53:47.839Z,12.90
2023-02-02T03:56:17.387Z,12.80
2023-02-02T03:58:47.531Z,12.80
2023-02-02T04:01:17.552Z,12.80
2023-02-02T04:03:47.558Z,12.80
2023-02-02T04:06:15.914Z,12.80
2023-02-02T04:08:45.664Z,12.80
2023-02-02T04:11:14.128Z,12.70
2023-02-02T04:13:43.505Z,12.70
2023-02-02T04:16:12.924Z,12.70
2023-02-02T04:18:41.397Z,12.70
2023-02-02T04:21:10.267Z,12.70
2023-02-02T04:23:38.574Z,12.70
2023-02-02T04:26:08.433Z,12.70
2023-02-02T04:28:36.837Z,12.70
2023-02-02T04:31:05.466Z,12.70
2023-02-02T04:33:35.789Z,12.70
2023-02-02T04:36:04.258Z,12.60
2023-02-02T04:38:32.573Z,12.60
2023-02-02T04:41:00.879Z,12.60
2023-02-02T04:43:30.584Z,12.50
2023-02-02T04:45:59.016Z,12.50
2023-02-02T04:48:27.445Z,12.50
2023-02-02T04:51:00.953Z,12.50
2023-02-02T04:53:30.160Z,12.50
2023-02-02T04:55:59.051Z,12.50
2023-02-02T04:58:27.467Z,12.50
2023-02-02T05:00:57.266Z,12.50
2023-02-02T05:03:26.029Z,12.50
2023-02-02T05:06:02.717Z,12.50
2023-02-02T05:08:31.103Z,12.50
2023-02-02T05:10:59.687Z,12.50
2023-02-02T05:13:27.996Z,12.50
2023-02-02T05:15:57.871Z,12.50
2023-02-02T05:18:26.607Z,12.50
2023-02-02T05:20:55.112Z,12.50
2023-02-02T05:23:23.475Z,12.50
2023-02-02T05:25:53.877Z,12.40
2023-02-02T05:28:22.994Z,12.40
2023-02-02T05:30:51.452Z,12.40
2023-02-02T05:33:21.214Z,12.40
2023-02-02T05:35:50.285Z,12.40
2023-02-02T05:38:18.628Z,12.40
2023-02-02T05:40:47.034Z,12.30
2023-02-02T05:43:15.397Z,12.40
2023-02-02T05:45:44.024Z,12.40
2023-02-02T05:48:15.046Z,12.40
2023-02-02T05:50:49.654Z,12.40
2023-02-02T05:53:18.463Z,12.40
2023-02-02T05:55:46.866Z,12.40
2023-02-02T05:58:15.236Z,12.40
2023-02-02T06:00:43.534Z,12.40
2023-02-02T06:03:13.397Z,12.40
2023-02-02T06:05:41.951Z,12.50
2023-02-02T06:08:11.723Z,12.50
2023-02-02T06:10:41.079Z,12.40
2023-02-02T06:13:09.688Z,12.40
2023-02-02T06:15:38.810Z,12.40
2023-02-02T06:18:22.439Z,12.40
2023-02-02T06:21:32.364Z,12.40
2023-02-02T06:25:20.987Z,12.40
2023-02-02T06:27:07.288Z,12.40
2023-02-02T06:29:35.601Z,12.40
2023-02-02T06:32:04.091Z,12.40
2023-02-02T06:34:32.486Z,12.40
2023-02-02T06:37:01.013Z,12.40
2023-02-02T06:39:30.666Z,12.40
2023-02-02T06:42:02.025Z,12.40
2023-02-02T06:44:34.558Z,12.40
2023-02-02T06:47:03.026Z,12.50
2023-02-02T06:49:31.444Z,12.40
2023-02-02T06:51:59.711Z,12.40
2023-02-02T06:55:01.916Z,12.50
2023-02-02T06:57:39.962Z,12.50
2023-02-02T07:00:09.759Z,12.50
2023-02-02T07:02:38.352Z,12.50
2023-02-02T07:05:07.427Z,12.50
2023-02-02T07:07:36.463Z,12.50
2023-02-02T07:10:07.269Z,12.50
2023-02-02T07:12:35.765Z,12.50
2023-02-02T07:15:04.322Z,12.50
2023-02-02T07:17:32.632Z,12.60
2023-02-02T07:20:01.027Z,12.50
2023-02-02T07:22:29.455Z,12.60
2023-02-02T07:24:57.831Z,12.60
2023-02-02T07:27:27.595Z,12.60
2023-02-02T07:29:55.920Z,12.70
2023-02-02T07:32:24.239Z,12.60
2023-02-02T07:34:52.623Z,12.60
2023-02-02T07:37:20.982Z,12.60
2023-02-02T07:39:49.351Z,12.70
2023-02-02T07:42:17.743Z,12.70
2023-02-02T07:44:47.443Z,12.70
2023-02-02T07:47:15.718Z,12.70
2023-02-02T07:49:45.154Z,12.80
2023-02-02T07:52:13.514Z,12.80
2023-02-02T07:54:41.884Z,12.80
2023-02-02T07:57:10.886Z,12.80
2023-02-02T07:59:39.312Z,12.80
2023-02-02T08:02:10.895Z,12.80
2023-02-02T08:04:39.340Z,12.80
2023-02-02T08:07:07.771Z,12.90
2023-02-02T08:09:36.062Z,12.90
2023-02-02T08:12:04.680Z,12.90
2023-02-02T08:14:34.185Z,12.90
2023-02-02T08:17:03.602Z,12.90
2023-02-02T08:19:34.097Z,12.90
2023-02-02T08:22:02.590Z,13.00
2023-02-02T08:24:31.279Z,13.00
2023-02-02T08:26:59.639Z,13.00
2023-02-02T08:29:28.910Z,13.00
2023-02-02T08:31:57.320Z,13.00
2023-02-02T08:34:25.751Z,13.10
2023-02-02T08:36:56.108Z,13.10
2023-02-02T08:39:24.727Z,13.10
2023-02-02T08:41:58.400Z,13.10
2023-02-02T08:44:27.827Z,13.10
2023-02-02T08:47:12.177Z,13.20
2023-02-02T08:49:42.508Z,13.20
2023-02-02T08:52:12.371Z,13.20
2023-02-02T08:54:40.698Z,13.20
2023-02-02T08:57:09.320Z,13.20
2023-02-02T08:59:37.621Z,13.30
2023-02-02T09:02:06.059Z,13.30
2023-02-02T09:04:34.449Z,13.30
2023-02-02T09:07:03.541Z,13.30
2023-02-02T09:09:33.587Z,13.40
2023-02-02T09:12:02.380Z,13.40
2023-02-02T09:14:30.901Z,13.40
2023-02-02T09:16:59.249Z,13.40
2023-02-02T09:19:27.773Z,13.40
2023-02-02T09:21:56.256Z,13.40
2023-02-02T09:24:24.713Z,13.50
2023-02-02T09:26:54.504Z,13.50
2023-02-02T09:29:22.963Z,13.50
2023-02-02T09:31:51.536Z,13.50
2023-02-02T09:34:19.990Z,13.60
2023-02-02T09:36:48.575Z,13.60
2023-02-02T09:39:21.473Z,13.60
2023-02-02T09:42:27.320Z,13.70
2023-02-02T09:45:10.367Z,13.80
2023-02-02T09:47:53.554Z,13.90
2023-02-02T09:50:36.415Z,13.90
2023-02-02T09:53:12.175Z,13.90
2023-02-02T09:55:42.751Z,13.90
2023-02-02T09:58:20.173Z,14.00
2023-02-02T10:00:56.969Z,14.00
2023-02-02T10:03:31.907Z,14.10
2023-02-02T10:06:07.633Z,14.10
2023-02-02T10:08:53.450Z,14.10
2023-02-02T10:11:41.438Z,14.20
2023-02-02T10:14:19.325Z,14.30
2023-02-02T10:16:49.771Z,14.30
2023-02-02T10:19:18.207Z,14.40
2023-02-02T10:21:53.402Z,14.50
2023-02-02T10:24:23.921Z,14.60
2023-02-02T10:26:54.812Z,14.60
2023-02-02T10:29:48.216Z,14.60
2023-02-02T10:32:28.199Z,14.70
2023-02-02T10:35:14.179Z,14.80
2023-02-02T10:37:51.418Z,14.80
2023-02-02T10:40:30.984Z,14.90
2023-02-02T10:43:38.983Z,14.90
2023-02-02T10:46:15.687Z,14.90
2023-02-02T10:48:47.175Z,15.00
2023-02-02T10:51:22.401Z,15.00
2023-02-02T10:53:53.390Z,15.10
2023-02-02T10:56:27.629Z,15.20
2023-02-02T10:59:02.461Z,15.30
2023-02-02T11:01:32.473Z,15.30
2023-02-02T11:04:18.627Z,15.30
2023-02-02T11:06:52.608Z,15.40
2023-02-02T11:09:24.497Z,15.50
2023-02-02T11:11:55.949Z,15.50
2023-02-02T11:14:44.544Z,15.50
2023-02-02T11:17:21.547Z,15.60
2023-02-02T11:19:50.977Z,15.60
2023-02-02T11:22:32.567Z,15.70
2023-02-02T11:25:03.862Z,15.70
2023-02-02T11:27:35.411Z,15.80
2023-02-02T11:30:14.115Z,15.80
2023-02-02T11:32:48.029Z,15.80
2023-02-02T11:35:23.333Z,15.80
2023-02-02T11:38:01.205Z,15.80
2023-02-02T11:40:32.829Z,15.90
2023-02-02T11:43:03.831Z,15.90
2023-02-02T11:45:36.598Z,15.90
2023-02-02T11:48:16.710Z,16.00
2023-02-02T11:50:49.244Z,16.10
2023-02-02T11:53:26.758Z,16.20
2023-02-02T11:55:56.404Z,16.20
2023-02-02T11:58:27.713Z,16.20
2023-02-02T12:00:59.402Z,16.30
2023-02-02T12:03:33.037Z,16.40
2023-02-02T12:06:03.259Z,16.40
2023-02-02T12:08:32.148Z,16.50
2023-02-02T12:11:02.327Z,16.60
2023-02-02T12:13:53.074Z,16.50
2023-02-02T12:16:38.492Z,16.60
2023-02-02T12:19:26.405Z,16.60
2023-02-02T12:22:05.116Z,16.70
2023-02-02T12:24:36.787Z,16.70
2023-02-02T12:27:19.612Z,16.80
2023-02-02T12:30:08.932Z,16.80
2023-02-02T12:32:52.771Z,16.90
2023-02-02T12:35:35.182Z,16.90
2023-02-02T12:38:17.520Z,16.90
2023-02-02T12:41:02.753Z,16.90
2023-02-02T12:43:41.058Z,17.00
2023-02-02T12:46:20.775Z,17.00
2023-02-02T12:49:06.272Z,17.00
2023-02-02T12:51:55.034Z,17.00
2023-02-02T12:54:47.498Z,17.10
2023-02-02T12:57:32.402Z,17.10
2023-02-02T13:00:28.552Z,17.20
2023-02-02T13:03:10.693Z,17.20
2023-02-02T13:05:54.787Z,17.30
2023-02-02T13:08:29.999Z,17.30
2023-02-02T13:11:05.453Z,17.30
2023-02-02T13:13:38.578Z,17.30
2023-02-02T13:16:11.842Z,17.30
2023-02-02T13:18:43.789Z,17.30
2023-02-02T13:21:16.975Z,17.40
2023-02-02T13:24:07.322Z,17.40
2023-02-02T13:26:40.427Z,17.50
2023-02-02T13:29:24.440Z,17.50
2023-02-02T13:32:06.580Z,17.60
2023-02-02T13:34:54.105Z,17.60
2023-02-02T13:37:29.554Z,17.60
2023-02-02T13:40:02.520Z,17.50
2023-02-02T13:42:42.204Z,17.60
2023-02-02T13:45:26.963Z,17.60
2023-02-02T13:48:06.386Z,17.60
2023-02-02T13:50:45.255Z,17.70
2023-02-02T13:53:43.034Z,17.60
2023-02-02T13:56:40.919Z,17.60
2023-02-02T13:59:26.694Z,17.70
2023-02-02T14:01:58.336Z,17.70
2023-02-02T14:04:30.555Z,17.70
2023-02-02T14:09:32.892Z,17.70
2023-02-02T14:12:07.253Z,17.80
2023-02-02T14:14:38.916Z,17.80
2023-02-02T14:17:09.145Z,17.80
2023-02-02T14:19:55.077Z,17.80
2023-02-02T14:22:45.680Z,17.80
2023-02-02T14:25:51.659Z,17.80
2023-02-02T14:28:43.821Z,17.80
2023-02-02T14:31:28.525Z,17.90
2023-02-02T14:34:27.813Z,17.90
2023-02-02T14:37:12.540Z,17.80
2023-02-02T14:39:54.648Z,17.80
2023-02-02T14:42:52.670Z,17.70
2023-02-02T14:45:40.443Z,17.80
2023-02-02T14:48:12.867Z,17.80
2023-02-02T14:50:49.374Z,17.80
2023-02-02T14:53:23.469Z,17.80
2023-02-02T14:55:59.737Z,17.80
2023-02-02T14:58:32.793Z,17.70
2023-02-02T15:01:15.619Z,17.70
2023-02-02T15:03:56.824Z,17.80
2023-02-02T15:06:32.604Z,17.80
2023-02-02T15:09:39.180Z,17.80
2023-02-02T15:12:26.276Z,17.80
2023-02-02T15:15:05.402Z,17.80
2023-02-02T15:18:01.843Z,17.80
2023-02-02T15:20:33.431Z,17.80
2023-02-02T15:23:06.542Z,17.80
2023-02-02T15:25:42.228Z,17.80
2023-02-02T15:28:19.281Z,17.80
2023-02-02T15:30:54.254Z,17.70
2023-02-02T15:33:31.140Z,17.80
2023-02-02T15:36:04.789Z,17.70
2023-02-02T15:38:36.985Z,17.70
2023-02-02T15:41:08.159Z,17.70
2023-02-02T15:43:36.784Z,17.70
2023-02-02T15:46:08.236Z,17.80
2023-02-02T15:48:38.058Z,17.80
2023-02-02T15:51:08.424Z,17.70
2023-02-02T15:53:49.946Z,17.70
2023-02-02T15:56:30.085Z,17.70
2023-02-02T15:59:00.674Z,17.70
2023-02-02T16:01:34.389Z,17.60
2023-02-02T16:04:18.575Z,17.60
2023-02-02T16:06:47.655Z,17.60
2023-02-02T16:09:25.234Z,17.60
2023-02-02T16:11:53.906Z,17.60
2023-02-02T16:14:22.560Z,17.50
2023-02-02T16:16:51.076Z,17.50
2023-02-02T16:19:24.034Z,17.40
2023-02-02T16:21:55.815Z,17.30
2023-02-02T16:24:27.983Z,17.30
2023-02-02T16:26:59.347Z,17.20
2023-02-02T16:29:29.006Z,17.20
2023-02-02T16:31:58.447Z,17.20
2023-02-02T16:34:47.318Z,17.10
2023-02-02T16:37:17.487Z,17.10
2023-02-02T16:39:45.898Z,17.00
2023-02-02T16:42:25.538Z,17.00
2023-02-02T16:44:54.666Z,16.90
2023-02-02T16:47:37.920Z,16.90
2023-02-02T16:50:32.220Z,16.90
2023-02-02T16:53:03.604Z,16.80
2023-02-02T16:55:49.138Z,16.80
2023-02-02T16:58:21.858Z,16.80
2023-02-02T17:01:12.315Z,16.70
2023-02-02T17:03:50.298Z,16.70
2023-02-02T17:06:38.368Z,16.70
2023-02-02T17:09:28.799Z,16.60
2023-02-02T17:12:00.427Z,16.60
2023-02-02T17:14:34.586Z,16.50
2023-02-02T17:17:05.663Z,16.50
2023-02-02T17:19:35.206Z,16.50
2023-02-02T17:22:08.735Z,16.50
2023-02-02T17:24:37.132Z,16.40
2023-02-02T17:27:05.813Z,16.40
2023-02-02T17:29:35.363Z,16.40
2023-02-02T17:32:03.606Z,16.40
2023-02-02T17:34:31.938Z,16.30
2023-02-02T17:37:00.323Z,16.30
2023-02-02T17:39:30.286Z,16.30
2023-02-02T17:41:58.676Z,16.20
2023-02-02T17:44:27.407Z,16.20
2023-02-02T17:46:55.675Z,16.20
2023-02-02T17:49:24.505Z,16.10
2023-02-02T17:51:52.776Z,16.10
2023-02-02T17:54:21.138Z,16.10
2023-02-02T17:56:50.949Z,16.10
2023-02-02T17:59:19.250Z,16.00
2023-02-02T18:01:47.620Z,16.10
2023-02-02T18:04:16.904Z,16.10
2023-02-02T18:06:45.279Z,16.10
2023-02-02T18:09:13.835Z,16.00
2023-02-02T18:11:42.743Z,16.00
2023-02-02T18:14:12.813Z,16.00
2023-02-02T18:16:41.407Z,16.00
2023-02-02T18:19:10.423Z,15.90
2023-02-02T18:21:38.884Z,15.90
2023-02-02T18:24:07.491Z,15.90
2023-02-02T18:26:35.888Z,15.80
2023-02-02T18:29:04.196Z,15.80
2023-02-02T18:31:34.158Z,15.80
2023-02-02T18:34:02.510Z,15.70
2023-02-02T18:36:30.825Z,15.70
2023-02-02T18:38:59.753Z,15.80
2023-02-02T18:41:28.362Z,15.70
2023-02-02T18:43:56.749Z,15.70
2023-02-02T18:46:26.668Z,15.70
2023-02-02T18:48:56.781Z,15.70
2023-02-02T18:51:25.334Z,15.70
2023-02-02T18:53:59.768Z,15.70
2023-02-02T18:56:28.669Z,15.70
2023-02-02T18:58:57.328Z,15.60
2023-02-02T19:01:26.705Z,15.60
2023-02-02T19:03:58.000Z,15.60
2023-02-02T19:06:48.254Z,15.60
2023-02-02T19:09:17.511Z,15.50
2023-02-02T19:11:47.877Z,15.50
2023-02-02T19:14:18.505Z,15.50
2023-02-02T19:16:48.438Z,15.50
2023-02-02T19:19:26.833Z,15.50
2023-02-02T19:21:57.008Z,15.50
2023-02-02T19:24:26.794Z,15.50
2023-02-02T19:26:55.684Z,15.50
2023-02-02T19:29:25.918Z,15.50
2023-02-02T19:31:57.637Z,15.50
2023-02-02T19:34:27.537Z,15.50
2023-02-02T19:36:55.793Z,15.50
2023-02-02T19:39:30.873Z,15.40
2023-02-02T19:42:01.889Z,15.40
2023-02-02T19:44:34.142Z,15.40
2023-02-02T19:47:20.505Z,15.40
2023-02-02T19:49:50.333Z,15.40
2023-02-02T19:52:24.127Z,15.40
2023-02-02T19:54:53.053Z,15.30
2023-02-02T19:57:25.911Z,15.40
2023-02-02T19:59:55.221Z,15.30
2023-02-02T20:02:53.193Z,15.30
2023-02-02T20:05:24.548Z,15.30
2023-02-02T20:07:59.249Z,15.30
2023-02-02T20:10:30.252Z,15.30
2023-02-02T20:12:58.617Z,15.30
2023-02-02T20:15:32.422Z,15.30
2023-02-02T20:18:03.343Z,15.20
2023-02-02T20:20:39.257Z,15.20
2023-02-02T20:23:21.424Z,15.30
2023-02-02T20:25:49.640Z,15.20
2023-02-02T20:28:33.455Z,15.20
2023-02-02T20:31:05.040Z,15.20
2023-02-02T20:33:33.760Z,15.20
2023-02-02T20:36:16.799Z,15.20
2023-02-02T20:38:45.994Z,15.20
2023-02-02T20:41:16.056Z,15.20
2023-02-02T20:43:46.125Z,15.20
2023-02-02T20:46:15.288Z,15.20
2023-02-02T20:48:43.611Z,15.20
2023-02-02T20:51:13.267Z,15.20
2023-02-02T20:53:41.863Z,15.20
2023-02-02T20:56:10.216Z,15.20
2023-02-02T20:58:38.527Z,15.20
2023-02-02T21:01:07.094Z,15.30
2023-02-02T21:03:35.764Z,15.30
2023-02-02T21:06:04.060Z,15.30
2023-02-02T21:08:34.259Z,15.30
2023-02-02T21:11:02.525Z,15.30
2023-02-02T21:13:30.933Z,15.20
2023-02-02T21:15:59.662Z,15.30
2023-02-02T21:18:28.214Z,15.30
2023-02-02T21:20:56.456Z,15.30
2023-02-02T21:23:25.130Z,15.20
2023-02-02T21:25:55.168Z,15.20
2023-02-02T21:28:23.795Z,15.20
2023-02-02T21:30:52.229Z,15.20
2023-02-02T21:33:20.632Z,15.30
2023-02-02T21:35:49.020Z,15.20
2023-02-02T21:38:17.773Z,15.20
2023-02-02T21:40:47.271Z,15.20
2023-02-02T21:43:19.786Z,15.20
2023-02-02T21:45:51.930Z,15.10
2023-02-02T21:48:29.739Z,15.10
2023-02-02T21:50:58.458Z,15.10
2023-02-02T21:53:28.801Z,15.10
2023-02-02T21:55:59.691Z,15.20
2023-02-02T21:58:35.483Z,15.10
2023-02-02T22:01:19.448Z,15.10
2023-02-02T22:03:50.080Z,15.10
2023-02-02T22:06:27.136Z,15.10
2023-02-02T22:09:01.614Z,15.10
2023-02-02T22:11:34.272Z,15.10
2023-02-02T22:14:18.191Z,15.10
2023-02-02T22:16:50.273Z,15.10
2023-02-02T22:19:34.534Z,15.10
2023-02-02T22:22:14.991Z,15.20
2023-02-02T22:24:44.222Z,15.10
2023-02-02T22:27:44.169Z,15.20
2023-02-02T22:30:21.706Z,15.10
2023-02-02T22:32:50.152Z,15.20
2023-02-02T22:35:19.458Z,15.10
2023-02-02T22:37:47.753Z,15.10
2023-02-02T22:40:16.706Z,15.20
2023-02-02T22:42:45.507Z,15.20
2023-02-02T22:45:15.692Z,15.10
2023-02-02T22:47:47.325Z,15.10
2023-02-02T22:50:16.429Z,15.10
2023-02-02T22:52:45.014Z,15.10
2023-02-02T22:55:14.278Z,15.10
2023-02-02T22:57:42.918Z,15.10
2023-02-02T23:00:14.201Z,15.10
2023-02-02T23:02:44.279Z,15.10
2023-02-02T23:05:15.054Z,15.10
2023-02-02T23:07:44.326Z,15.10
2023-02-02T23:10:14.125Z,15.10
2023-02-02T23:12:43.566Z,15.00
2023-02-02T23:15:12.548Z,15.00
2023-02-02T23:17:41.588Z,15.10
2023-02-02T23:20:15.956Z,15.10
2023-02-02T23:22:44.287Z,15.00
2023-02-02T23:25:13.827Z,15.10
2023-02-02T23:27:42.529Z,15.10
2023-02-02T23:30:12.548Z,15.00
2023-02-02T23:32:40.984Z,15.10
2023-02-02T23:35:11.895Z,15.00
2023-02-02T23:37:40.500Z,15.10
2023-02-02T23:40:09.961Z,15.00
2023-02-02T23:42:38.802Z,15.00
2023-02-02T23:45:08.390Z,15.00
2023-02-02T23:47:37.056Z,15.00
2023-02-02T23:50:07.906Z,15.00
2023-02-02T23:52:38.416Z,15.00
2023-02-02T23:55:08.543Z,15.00
2023-02-02T23:57:37.650Z,15.00
